Latest Weather Observations for Tuggeranong

IDN60801

Issued at 5:06 pm EDT Wednesday 28 January 2015 (issued every 30 minutes, with the page automatically refreshed every 10 minutes)

About weather observations | Map of weather stations | Latest weather observations for NSW | Other Formats
Station Details ID: 070339 Name: TUGGERANONG (ISABELLA PLAINS) AWS Lat: -35.42 Lon: 149.09 Height: 586.7 m
Data from the previous 72 hours. | See also: Recent months at Tuggeranong
Date/Time
EDT
Temp
°C
App
Temp
°C
Dew
Point
Rel
Hum
%
Delta-T
°C
Wind Press
QNH
hPa
Press
MSL
hPa
Rain
since 9 am
mm
Dir
 
Spd
km/h
Gust
km/h
Spd
kts
Gust
kts
28/05:00pm 18.7 14.3 10.3 58 4.6 SSE 24 35 13 19 1015.0 1012.1 0.0
28/04:30pm 19.3 14.3 9.5 53 5.3 ESE 26 37 14 20 1014.6 1011.6 0.0
28/04:00pm 22.7 19.0 8.0 39 7.9 ESE 17 30 9 16 1013.9 1010.9 0.0
28/03:30pm 22.7 19.4 6.5 35 8.5 SSE 13 32 7 17 1014.2 1011.2 0.0
28/03:00pm 21.7 17.1 5.6 35 8.3 SSE 19 28 10 15 1014.4 1011.4 0.0
28/02:30pm 22.7 18.8 7.3 37 8.2 SSE 17 28 9 15 1014.6 1011.6 0.0
28/02:00pm 22.3 17.9 6.5 36 8.3 SSE 19 32 10 17 1014.9 1012.0 0.0
28/01:30pm 21.7 18.3 7.5 40 7.6 SSE 15 26 8 14 1015.3 1012.4 0.0
28/01:00pm 20.9 16.9 6.8 40 7.4 S 17 28 9 15 1015.5 1012.6 0.0
28/12:30pm 21.3 17.5 9.2 46 6.6 SSE 19 26 10 14 1015.7 1012.7 0.0
28/12:00pm 20.0 16.6 9.3 50 5.8 SSE 17 30 9 16 1015.8 1012.8 0.0
28/11:30am 18.8 15.1 9.6 55 5.0 S 19 28 10 15 1016.1 1013.1 0.0
28/11:00am 18.9 15.7 9.9 56 4.9 S 17 24 9 13 1016.3 1013.3 0.0
28/10:30am 18.3 15.0 9.6 57 4.7 S 17 26 9 14 1016.4 1013.5 0.0
28/10:00am 17.6 14.4 9.8 60 4.2 SSE 17 24 9 13 1016.5 1013.6 0.0
28/09:30am 17.6 14.7 9.8 60 4.2 S 15 22 8 12 1016.6 1013.7 0.0
28/09:00am 16.7 13.9 10.1 65 3.6 SSE 15 22 8 12 1016.6 1013.7 0.0
28/08:30am 16.2 13.6 10.7 70 3.0 S 15 22 8 12 1016.4 1013.5 0.0
28/08:00am 15.9 13.2 10.2 69 3.1 S 15 22 8 12 1016.2 1013.2 0.0
28/07:30am 14.6 12.6 10.0 74 2.5 SSE 11 17 6 9 1015.9 1012.9 0.0
28/07:00am 14.3 11.4 9.5 73 2.5 S 15 24 8 13 1015.5 1012.6 0.0
28/06:30am 14.0 11.5 9.6 75 2.3 SSE 13 20 7 11 1015.1 1012.2 0.0
28/06:00am 13.8 12.0 9.5 75 2.3 S 9 15 5 8 1014.8 1011.8 0.0
28/05:30am 14.3 11.0 9.7 74 2.4 S 17 22 9 12 1014.8 1011.8 0.0
28/05:00am 14.5 12.5 10.1 75 2.4 S 11 17 6 9 1014.8 1011.8 0.0
28/04:30am 14.5 14.1 9.9 74 2.5 SE 2 7 1 4 1014.7 1011.7 0.0
28/04:00am 14.6 13.3 9.8 73 2.6 SSE 7 13 4 7 1014.6 1011.6 0.0
28/03:30am 14.4 13.1 9.8 74 2.5 SE 7 13 4 7 1014.8 1011.8 0.0
28/02:30am 13.9 12.0 9.1 73 2.5 SSE 9 13 5 7 1015.0 1012.1 0.0
28/02:00am 14.4 12.9 9.2 71 2.7 S 7 13 4 7 1015.0 1012.1 0.0
28/01:30am 14.5 13.2 9.1 70 2.8 ESE 6 9 3 5 1015.3 1012.4 0.0
28/01:00am 14.8 12.9 9.2 69 3.0 ESE 9 13 5 7 1015.4 1012.5 0.0
28/12:30am 14.8 13.0 9.4 70 2.9 ESE 9 13 5 7 1015.7 1012.7 0.0
28/12:00am 14.8 12.6 9.4 70 2.9 ESE 11 20 6 11 1016.0 1013.0 0.0
 
Date/Time
EDT
Temp
°C
App
Temp
°C
Dew
Point
Rel
Hum
%
Delta-T
°C
Wind Press
QNH
hPa
Press
MSL
hPa
Rain
since 9 am
mm
Dir
 
Spd
km/h
Gust
km/h
Spd
kts
Gust
kts
27/11:30pm 14.9 12.2 9.1 68 3.1 ESE 13 24 7 13 1016.1 1013.1 0.0
27/11:00pm 14.8 11.8 9.2 69 3.0 ESE 15 22 8 12 1016.2 1013.2 0.0
27/10:30pm 14.6 12.6 10.0 74 2.5 E 11 13 6 7 1016.2 1013.2 0.0
27/10:00pm 15.0 12.6 10.0 72 2.7 SE 13 19 7 10 1016.0 1013.0 0.0
27/09:30pm 15.4 12.4 10.6 73 2.6 ESE 17 22 9 12 1015.8 1012.8 0.0
27/09:00pm 15.8 14.0 10.8 72 2.7 ESE 11 19 6 10 1015.5 1012.6 0.0
27/08:30pm 16.0 14.7 11.2 73 2.7 E 9 15 5 8 1015.3 1012.4 0.0
27/08:00pm 16.0 13.5 11.0 72 2.8 E 15 22 8 12 1014.9 1012.0 0.0
27/07:30pm 16.4 14.3 11.1 71 2.9 ESE 13 19 7 10 1014.8 1011.8 0.0
27/07:00pm 16.7 14.2 11.0 69 3.2 ESE 15 22 8 12 1014.3 1011.3 0.0
27/06:30pm 17.2 15.1 11.2 68 3.3 ESE 13 22 7 12 1014.1 1011.1 0.0
27/06:00pm 17.1 15.4 11.2 68 3.3 E 11 17 6 9 1014.0 1011.0 0.0
27/05:30pm 17.1 15.0 11.2 68 3.3 ESE 13 19 7 10 1013.9 1010.9 0.0
27/05:00pm 17.2 14.7 11.2 68 3.3 E 15 24 8 13 1013.9 1010.9 0.0
27/04:30pm 17.3 14.9 11.3 68 3.3 ESE 15 22 8 12 1014.2 1011.2 0.0
27/04:00pm 17.4 14.9 11.2 67 3.5 ESE 15 24 8 13 1014.4 1011.4 0.0
27/03:30pm 17.2 14.8 11.5 69 3.2 E 15 22 8 12 1014.6 1011.6 0.0
27/03:00pm 17.2 14.7 11.2 68 3.3 E 15 20 8 11 1014.7 1011.7 0.0
27/02:30pm 17.3 15.3 11.6 69 3.2 ESE 13 17 7 9 1014.7 1011.7 0.0
27/02:00pm 17.4 15.7 11.2 67 3.5 SE 11 22 6 12 1014.9 1012.0 0.0
27/01:30pm 17.3 16.0 11.3 68 3.3 ESE 9 15 5 8 1015.0 1012.1 0.0
27/01:00pm 17.2 15.9 11.2 68 3.3 ESE 9 13 5 7 1015.3 1012.4 0.0
27/12:30pm 17.1 15.3 10.9 67 3.4 SE 11 17 6 9 1015.2 1012.3 0.0
27/12:00pm 16.8 15.1 11.1 69 3.2 SE 11 17 6 9 1015.7 1012.7 0.0
27/11:30am 16.7 15.3 11.0 69 3.2 SE 9 13 5 7 1015.9 1012.9 0.0
27/11:00am 16.5 15.6 11.4 72 2.8 SE 7 13 4 7 1016.0 1013.0 0.0
27/10:30am 16.1 14.8 11.1 72 2.8 SE 9 13 5 7 1016.0 1013.0 0.0
27/10:00am 15.8 14.5 11.2 74 2.5 SSE 9 15 5 8 1016.0 1013.0 0.0
27/09:30am 15.5 13.7 10.9 74 2.5 SSE 11 15 6 8 1016.1 1013.1 0.0
27/09:00am 15.3 14.0 11.1 76 2.3 S 9 11 5 6 1016.1 1013.1 0.6
27/08:30am 14.8 14.3 11.9 83 1.6 S 6 9 3 5 1016.0 1013.0 0.6
27/08:00am 14.2 13.4 11.7 85 1.4 S 7 9 4 5 1015.8 1012.8 0.6
27/07:30am 14.2 13.1 10.8 80 1.8 SSW 7 11 4 6 1015.4 1012.5 0.4
27/07:00am 14.9 12.8 9.9 72 2.7 S 11 13 6 7 1015.1 1012.2 0.0
27/06:30am 15.1 13.8 10.1 72 2.7 SSE 7 11 4 6 1014.9 1012.0 0.0
27/06:00am 15.1 13.4 9.9 71 2.8 SE 9 13 5 7 1014.8 1011.8 0.0
27/05:30am 15.0 13.3 10.0 72 2.7 SE 9 13 5 7 1014.7 1011.7 0.0
27/05:00am 14.8 13.5 9.8 72 2.7 SSE 7 15 4 8 1014.8 1011.8 0.0
27/04:30am 14.9 13.6 10.1 73 2.6 SE 7 11 4 6 1014.9 1012.0 0.0
27/04:00am 14.8 13.1 10.0 73 2.6 ESE 9 13 5 7 1015.0 1012.1 0.0
27/03:30am 14.9 13.6 9.9 72 2.7 SE 7 11 4 6 1015.1 1012.2 0.0
27/03:00am 14.8 13.1 9.8 72 2.7 SE 9 11 5 6 1015.3 1012.4 0.0
27/02:30am 14.8 13.5 9.8 72 2.7 SE 7 13 4 7 1015.5 1012.6 0.0
27/02:00am 14.8 13.1 9.8 72 2.7 SE 9 11 5 6 1015.8 1012.8 0.0
27/01:30am 14.8 13.4 9.6 71 2.8 ESE 7 13 4 7 1016.1 1013.1 0.0
27/01:00am 14.8 13.0 9.6 71 2.8 SE 9 13 5 7 1016.3 1013.3 0.0
27/12:30am 14.9 13.1 9.5 70 2.9 SE 9 13 5 7 1016.5 1013.6 0.0
27/12:00am 14.8 13.4 9.4 70 2.9 E 7 13 4 7 1016.6 1013.7 0.0
 
Date/Time
EDT
Temp
°C
App
Temp
°C
Dew
Point
Rel
Hum
%
Delta-T
°C
Wind Press
QNH
hPa
Press
MSL
hPa
Rain
since 9 am
mm
Dir
 
Spd
km/h
Gust
km/h
Spd
kts
Gust
kts
26/11:30pm 14.7 12.5 9.3 70 2.9 SE 11 15 6 8 1016.6 1013.7 0.0
26/11:00pm 14.6 12.0 9.2 70 2.8 SE 13 17 7 9 1016.8 1013.9 0.0
26/10:30pm 14.6 12.8 9.4 71 2.8 ESE 9 13 5 7 1016.9 1014.0 0.0
26/10:00pm 14.5 11.8 9.1 70 2.8 ESE 13 22 7 12 1016.9 1014.0 0.0
26/09:30pm 14.6 12.0 9.2 70 2.8 ESE 13 22 7 12 1016.7 1013.8 0.0
26/09:00pm 14.8 12.6 9.4 70 2.9 ESE 11 22 6 12 1016.4 1013.5 0.0
26/08:30pm 14.8 12.2 9.4 70 2.9 E 13 19 7 10 1016.3 1013.3 0.0
26/08:00pm 14.9 12.0 9.7 71 2.8 E 15 26 8 14 1015.9 1012.9 0.0
26/07:30pm 15.8 12.6 10.1 69 3.1 E 17 28 9 15 1015.3 1012.4 0.0
26/07:00pm 16.4 12.7 10.3 67 3.3 E 20 37 11 20 1014.7 1011.7 0.0
26/06:30pm 17.6 14.0 10.5 63 3.9 ENE 20 32 11 17 1014.1 1011.1 0.0
26/06:00pm 18.9 15.5 10.7 59 4.6 NE 19 32 10 17 1013.6 1010.7 0.0
26/05:30pm 19.2 15.4 11.3 60 4.4 ENE 22 32 12 17 1013.5 1010.6 0.0
26/05:00pm 19.5 15.7 11.0 58 4.8 NE 22 35 12 19 1013.3 1010.4 0.0
26/04:30pm 20.4 17.1 11.6 57 5.0 NE 20 32 11 17 1013.2 1010.2 0.0
26/04:00pm 20.2 16.1 11.4 57 5.0 NE 24 33 13 18 1013.3 1010.4 0.0
26/03:30pm 20.8 16.9 12.0 57 5.1 NE 24 35 13 19 1013.2 1010.2 0.0
26/03:00pm 20.9 17.8 12.1 57 5.1 ENE 20 30 11 16 1013.3 1010.4 0.0
26/02:30pm 21.0 17.8 11.3 54 5.5 ENE 19 30 10 16 1013.6 1010.7 0.0
26/02:00pm 21.4 19.6 12.0 55 5.4 NE 13 20 7 11 1013.6 1010.7 0.0
26/01:30pm 21.0 19.5 11.9 56 5.2 NNE 11 20 6 11 1014.1 1011.1 0.0
26/01:00pm 19.1 16.9 10.9 59 4.6 ENE 13 20 7 11 1014.3 1011.3 0.0
26/12:30pm 19.3 17.3 11.6 61 4.4 NE 13 22 7 12 1014.3 1011.3 0.0
26/12:00pm 18.4 16.9 10.5 60 4.4 NE 9 17 5 9 1014.7 1011.7 0.0
26/11:30am 18.9 17.7 11.7 63 4.1 N 9 19 5 10 1014.8 1011.8 0.0
26/11:00am 17.5 15.8 11.1 66 3.6 NE 11 15 6 8 1015.0 1012.1 0.0
26/10:30am 17.3 14.7 10.7 65 3.6 NNE 15 22 8 12 1015.0 1012.1 0.0
26/10:00am 16.8 14.5 10.6 67 3.4 NE 13 20 7 11 1015.0 1012.1 0.0
26/09:30am 16.4 14.6 10.7 69 3.1 ENE 11 20 6 11 1014.9 1012.0 0.0
26/09:00am 15.8 14.0 10.8 72 2.7 NE 11 19 6 10 1015.1 1012.2 0.0
26/08:30am 15.5 14.1 10.9 74 2.5 NNE 9 15 5 8 1015.0 1012.1 0.0
26/08:00am 15.3 14.2 10.7 74 2.5 NE 7 15 4 8 1014.7 1011.7 0.0
26/07:30am 14.9 13.9 10.9 77 2.2 NE 7 11 4 6 1014.5 1011.5 0.0
26/07:00am 14.1 13.7 11.1 82 1.6 SSE 4 7 2 4 1014.1 1011.1 0.0
26/06:30am 13.5 13.5 11.2 86 1.3 S 2 7 1 4 1013.6 1010.7 0.0
26/06:00am 13.6 12.6 10.9 84 1.5 E 7 13 4 7 1013.4 1010.5 0.0
26/05:30am 13.8 13.0 11.0 83 1.5 ENE 6 9 3 5 1012.9 1009.9 0.0
26/05:00am 14.2 12.4 11.0 81 1.7 E 11 15 6 8 1012.6 1009.6 0.0
26/04:30am 14.5 12.7 10.9 79 2.0 ENE 11 17 6 9 1012.4 1009.4 0.0
26/04:00am 14.7 12.6 11.1 79 2.0 ENE 13 17 7 9 1012.5 1009.5 0.0
26/03:30am 14.8 13.1 11.2 79 2.0 ENE 11 15 6 8 1012.3 1009.3 0.0
26/03:00am 15.3 14.6 11.5 78 2.1 ENE 6 9 3 5 1012.5 1009.5 0.0
26/02:30am 15.4 14.6 11.8 79 2.0 ENE 7 9 4 5 1012.2 1009.2 0.0
26/02:00am 15.3 15.9 11.9 80 1.9 CALM 0 7 0 4 1012.1 1009.1 0.0
26/01:30am 14.9 15.5 11.9 82 1.7 CALM 0 0 0 0 1011.8 1008.9 0.0
26/01:00am 14.9 14.1 11.7 81 1.8 E 7 11 4 6 1011.6 1008.6 0.0
26/12:30am 15.4 13.5 11.8 79 2.0 ESE 13 19 7 10 1011.4 1008.4 0.0
26/12:00am 16.1 13.1 11.9 76 2.4 ENE 19 30 10 16 1011.1 1008.1 0.0
 
Date/Time
EDT
Temp
°C
App
Temp
°C
Dew
Point
Rel
Hum
%
Delta-T
°C
Wind Press
QNH
hPa
Press
MSL
hPa
Rain
since 9 am
mm
Dir
 
Spd
km/h
Gust
km/h
Spd
kts
Gust
kts
25/11:30pm 16.9 14.0 11.0 68 3.3 NE 17 32 9 17 1010.6 1007.6 0.0
25/11:00pm 17.2 16.5 7.0 51 5.2 CALM 0 7 0 4 1010.1 1007.1 0.0
25/10:30pm 18.7 16.3 5.2 41 6.8 NE 7 11 4 6 1009.9 1006.9 0.0
25/10:00pm 19.1 15.9 5.2 40 7.0 WNW 11 15 6 8 1009.6 1006.6 0.0
25/09:30pm 20.0 17.5 4.5 36 7.7 NW 7 13 4 7 1009.4 1006.4 0.0
25/09:00pm 21.7 18.0 4.3 32 8.8 NW 13 20 7 11 1009.1 1006.1 0.0
25/08:30pm 22.1 18.4 4.2 31 9.0 NW 13 19 7 10 1008.6 1005.5 0.0
25/08:00pm 23.1 19.4 4.6 30 9.4 NW 13 24 7 13 1008.4 1005.3 0.0
25/07:30pm 24.6 20.8 5.9 30 9.8 WNW 15 22 8 12 1007.7 1004.7 0.0
25/07:00pm 25.2 20.4 5.4 28 10.4 WNW 20 28 11 15 1007.2 1004.1 0.0
25/06:30pm 26.1 21.8 7.2 30 10.3 W 19 28 10 15 1006.8 1003.7 0.0
25/06:00pm 26.1 21.2 6.7 29 10.5 WNW 22 35 12 19 1006.4 1003.4 0.0
25/05:30pm 26.6 22.1 7.1 29 10.6 WNW 20 30 11 16 1006.2 1003.2 0.0

Other Formats:

Comma delimited format used in spreadsheet applications
http://www.bom.gov.au/fwo/IDN60801/IDN60801.94925.axf

JavaScript Object Notation format (JSON) in row-major order
http://www.bom.gov.au/fwo/IDN60801/IDN60801.94925.json